Horse Creek, WY

5:17 PM MDT on August 21, 2014 (GMT -0600)
RAWS MBR PORTABLE 1 WY US | Change Station
CLOSE
Current Station
Personal Weather Station
Location: Laramie, WY
Elevation: 8546 ft
Nearby Weather Stations

Elev 8546 ft 41.23 °N, 105.43 °W | Updated 53 minutes ago

Clear
Clear
65 °F
Feels Like 65 °F
N
10
Wind Variable Wind from SSW
Gusts 18.0 mph

Today
High -- | Low -- °F
--% Chance of Precip.
Yesterday
High -- | Low -- °F
Precip. -- in
6:16 AM 7:51 PM
Waning Crescent, 11% visible
Pressure 29.91 in
Visibility 10.0 miles
Clouds Clear
Dew Point 36 °F
Humidity 34%
Rainfall 0.00 in
Snow Depth 6 in
UV 4 out of 12
Pollen 10.30 out of 12
Air Quality Not available.
Flu Activity Not available.
METAR KLAR 212253Z AUTO 22007KT 10SM CLR 22/03 A3021 RMK AO2 SLP129 T02220033

More Conditions Fewer Conditions

Pressure 29.91 in
Visibility 10.0 miles
Clouds Clear
Dew Point 36 °F
Humidity 34%
Rainfall 0.00 in
Snow Depth 6 in
UV 4 out of 12
Pollen 10.30 out of 12
Air Quality Not available.
Flu Activity Not available.
METAR KLAR 212253Z AUTO 22007KT 10SM CLR 22/03 A3021 RMK AO2 SLP129 T02220033

More Conditions Fewer Conditions

10-Day Weather Forecast

Almanac

Astronomy

Aug. 21, 2014 Rise Set
Actual Time 6:16 AM MDT 7:51 PM MDT
Civil Twilight 5:47 AM MDT 8:20 PM MDT
Nautical Twilight 5:12 AM MDT 8:56 PM MDT
Astronomical Twilight 4:34 AM MDT 9:33 PM MDT
Moon 2:48 AM MDT 5:23 PM MDT
Length of Visible Light 14h 33m
Length of Day
13h 35m
Tomorrow will be 2m 32s shorter.
Waning Crescent, 11% of the Moon is Illuminated
Today
Waning Crescent
Aug 25
New
Sep 2
First Quarter
Sep 8
Full
Sep 15
Last Quarter

Today's Extremes

State Highs State Lows

Community

WunderPhotos

Upload Photos

1,746,051 photos uploaded!

Nearby

Snow Depth

Station Depth Elevation
Crow Creek 6 in 8330 ft
Old Battle 0 in 9920 ft
Sandstone R.S. 1 in 8150 ft
Casper Mountain 0 in 7850 ft
Grave Springs 0 in 8550 ft

Earthquake Activity

City Distance Mag. Time & Date
No recent earthquake activity has been reported nearby.
Minimum magnitude displayed is 2.5.

Coastal Water Temperatures

Place Temperature
No Stations Reporting

Nearby Weather Stations